sensor_id;sensor_type;location;lat;lon;timestamp;pressure;altitude;pressure_sealevel;temperature;humidity
21980;BME280;11154;48.558;9.234;2023-02-14T00:01:32;99343.09;;;6.54;66.89
21980;BME280;11154;48.558;9.234;2023-02-14T00:03:34;99340.09;;;6.60;66.85
21980;BME280;11154;48.558;9.234;2023-02-14T00:05:35;99336.41;;;6.62;67.08
21980;BME280;11154;48.558;9.234;2023-02-14T00:07:37;99335.28;;;6.66;66.77
21980;BME280;11154;48.558;9.234;2023-02-14T00:09:39;99332.66;;;6.66;66.50
21980;BME280;11154;48.558;9.234;2023-02-14T00:11:42;99330.84;;;6.67;66.99
21980;BME280;11154;48.558;9.234;2023-02-14T00:13:44;99331.59;;;6.69;67.02
21980;BME280;11154;48.558;9.234;2023-02-14T00:15:59;99328.97;;;6.69;66.55
21980;BME280;11154;48.558;9.234;2023-02-14T00:18:01;99331.72;;;6.67;66.83
21980;BME280;11154;48.558;9.234;2023-02-14T00:20:03;99334.25;;;6.69;66.68
21980;BME280;11154;48.558;9.234;2023-02-14T00:22:05;99337.00;;;6.67;66.66
21980;BME280;11154;48.558;9.234;2023-02-14T00:24:08;99335.19;;;6.68;67.11
21980;BME280;11154;48.558;9.234;2023-02-14T00:26:14;99331.78;;;6.66;66.25
21980;BME280;11154;48.558;9.234;2023-02-14T00:28:16;99322.16;;;6.65;66.65
21980;BME280;11154;48.558;9.234;2023-02-14T00:30:18;99318.66;;;6.64;66.23
21980;BME280;11154;48.558;9.234;2023-02-14T00:32:20;99316.97;;;6.63;66.42
21980;BME280;11154;48.558;9.234;2023-02-14T00:34:21;99325.81;;;6.62;65.97
21980;BME280;11154;48.558;9.234;2023-02-14T00:36:23;99328.69;;;6.59;65.96
21980;BME280;11154;48.558;9.234;2023-02-14T00:38:24;99322.53;;;6.59;66.34
21980;BME280;11154;48.558;9.234;2023-02-14T00:40:26;99320.75;;;6.59;66.77
21980;BME280;11154;48.558;9.234;2023-02-14T00:42:28;99330.53;;;6.57;66.29
21980;BME280;11154;48.558;9.234;2023-02-14T00:44:31;99317.34;;;6.57;66.48
21980;BME280;11154;48.558;9.234;2023-02-14T00:46:33;99328.00;;;6.56;66.17
21980;BME280;11154;48.558;9.234;2023-02-14T00:48:34;99328.00;;;6.56;66.22
21980;BME280;11154;48.558;9.234;2023-02-14T00:50:36;99321.69;;;6.58;66.37
21980;BME280;11154;48.558;9.234;2023-02-14T00:52:38;99323.47;;;6.58;66.26
21980;BME280;11154;48.558;9.234;2023-02-14T00:54:39;99334.78;;;6.60;66.00
21980;BME280;11154;48.558;9.234;2023-02-14T00:56:41;99327.75;;;6.60;65.36
21980;BME280;11154;48.558;9.234;2023-02-14T00:58:43;99328.47;;;6.62;64.45
21980;BME280;11154;48.558;9.234;2023-02-14T01:00:46;99332.91;;;6.62;64.09
21980;BME280;11154;48.558;9.234;2023-02-14T01:02:47;99336.50;;;6.61;64.10
21980;BME280;11154;48.558;9.234;2023-02-14T01:04:49;99330.38;;;6.60;64.21
21980;BME280;11154;48.558;9.234;2023-02-14T01:06:50;99326.97;;;6.58;64.17
21980;BME280;11154;48.558;9.234;2023-02-14T01:08:52;99324.06;;;6.63;64.06
21980;BME280;11154;48.558;9.234;2023-02-14T01:10:54;99326.59;;;6.64;63.74
21980;BME280;11154;48.558;9.234;2023-02-14T01:12:55;99328.47;;;6.62;64.47
21980;BME280;11154;48.558;9.234;2023-02-14T01:14:57;99334.03;;;6.58;63.46
21980;BME280;11154;48.558;9.234;2023-02-14T01:17:00;99329.13;;;6.52;63.95
21980;BME280;11154;48.558;9.234;2023-02-14T01:19:02;99329.41;;;6.47;62.93
21980;BME280;11154;48.558;9.234;2023-02-14T01:21:18;99334.03;;;6.44;62.57
21980;BME280;11154;48.558;9.234;2023-02-14T01:23:19;99334.47;;;6.37;62.99
21980;BME280;11154;48.558;9.234;2023-02-14T01:25:21;99338.34;;;6.31;63.07
21980;BME280;11154;48.558;9.234;2023-02-14T01:27:23;99330.16;;;6.36;64.35
21980;BME280;11154;48.558;9.234;2023-02-14T01:29:24;99332.19;;;6.31;63.36
21980;BME280;11154;48.558;9.234;2023-02-14T01:31:28;99324.47;;;6.28;63.35
21980;BME280;11154;48.558;9.234;2023-02-14T01:33:31;99328.06;;;6.27;64.23
21980;BME280;11154;48.558;9.234;2023-02-14T01:35:36;99325.56;;;6.24;63.63
21980;BME280;11154;48.558;9.234;2023-02-14T01:37:38;99322.78;;;6.27;64.10
21980;BME280;11154;48.558;9.234;2023-02-14T01:39:39;99332.41;;;6.28;64.05
21980;BME280;11154;48.558;9.234;2023-02-14T01:41:43;99318.41;;;6.26;63.47
21980;BME280;11154;48.558;9.234;2023-02-14T01:43:53;99321.81;;;6.28;63.93
21980;BME280;11154;48.558;9.234;2023-02-14T01:45:55;99318.41;;;6.26;63.24
21980;BME280;11154;48.558;9.234;2023-02-14T01:47:57;99321.16;;;6.24;62.86
21980;BME280;11154;48.558;9.234;2023-02-14T01:50:03;99325.94;;;6.18;61.74
21980;BME280;11154;48.558;9.234;2023-02-14T01:52:07;99326.31;;;6.12;63.07
21980;BME280;11154;48.558;9.234;2023-02-14T01:54:11;99323.66;;;6.12;64.00
21980;BME280;11154;48.558;9.234;2023-02-14T01:56:17;99321.13;;;6.10;63.98
21980;BME280;11154;48.558;9.234;2023-02-14T01:58:23;99322.94;;;6.10;63.87
21980;BME280;11154;48.558;9.234;2023-02-14T02:00:25;99322.06;;;6.09;63.38
21980;BME280;11154;48.558;9.234;2023-02-14T02:02:45;99291.53;;;3.68;72.09
21980;BME280;11154;48.558;9.234;2023-02-14T02:04:46;99300.97;;;3.02;77.79
21980;BME280;11154;48.558;9.234;2023-02-14T02:06:53;99288.84;;;2.63;81.47
21980;BME280;11154;48.558;9.234;2023-02-14T02:09:03;99295.31;;;2.36;83.09
21980;BME280;11154;48.558;9.234;2023-02-14T02:11:08;99296.72;;;2.24;84.34
21980;BME280;11154;48.558;9.234;2023-02-14T02:13:15;99294.44;;;2.17;85.47
21980;BME280;11154;48.558;9.234;2023-02-14T02:15:18;99291.75;;;1.99;85.81
21980;BME280;11154;48.558;9.234;2023-02-14T02:17:25;99287.09;;;1.85;87.21
21980;BME280;11154;48.558;9.234;2023-02-14T02:20:12;99283.75;;;1.82;89.05
21980;BME280;11154;48.558;9.234;2023-02-14T02:22:48;99285.56;;;1.80;90.75
21980;BME280;11154;48.558;9.234;2023-02-14T02:25:00;99290.28;;;1.72;90.39
21980;BME280;11154;48.558;9.234;2023-02-14T02:27:33;99297.31;;;1.71;91.78
21980;BME280;11154;48.558;9.234;2023-02-14T02:30:10;99295.28;;;1.78;91.13
21980;BME280;11154;48.558;9.234;2023-02-14T02:32:40;99299.59;;;1.79;90.24
21980;BME280;11154;48.558;9.234;2023-02-14T02:35:19;99286.03;;;1.89;89.83
21980;BME280;11154;48.558;9.234;2023-02-14T02:37:34;99294.25;;;1.82;88.58
21980;BME280;11154;48.558;9.234;2023-02-14T02:39:57;99292.53;;;1.81;89.61
21980;BME280;11154;48.558;9.234;2023-02-14T02:42:09;99294.25;;;1.82;88.95
21980;BME280;11154;48.558;9.234;2023-02-14T02:44:17;99291.75;;;1.99;91.46
21980;BME280;11154;48.558;9.234;2023-02-14T02:46:22;99284.06;;;2.14;93.33
21980;BME280;11154;48.558;9.234;2023-02-14T02:48:46;99284.78;;;1.98;91.57
21980;BME280;11154;48.558;9.234;2023-02-14T02:50:52;99288.72;;;1.88;90.28
21980;BME280;11154;48.558;9.234;2023-02-14T02:53:16;99297.66;;;1.84;90.04
21980;BME280;11154;48.558;9.234;2023-02-14T02:55:31;99284.56;;;1.84;90.42
21980;BME280;11154;48.558;9.234;2023-02-14T02:57:55;99290.44;;;1.89;90.47
21980;BME280;11154;48.558;9.234;2023-02-14T02:59:56;99280.16;;;1.84;89.97
21980;BME280;11154;48.558;9.234;2023-02-14T03:02:04;99278.31;;;1.86;89.58
21980;BME280;11154;48.558;9.234;2023-02-14T03:04:09;99278.31;;;1.86;90.02
21980;BME280;11154;48.558;9.234;2023-02-14T03:06:36;99277.53;;;1.84;90.14
21980;BME280;11154;48.558;9.234;2023-02-14T03:08:37;99282.84;;;1.83;90.27
21980;BME280;11154;48.558;9.234;2023-02-14T03:10:39;99282.19;;;1.78;90.33
21980;BME280;11154;48.558;9.234;2023-02-14T03:13:11;99286.56;;;1.77;90.65
21980;BME280;11154;48.558;9.234;2023-02-14T03:15:20;99282.22;;;1.76;91.47
21980;BME280;11154;48.558;9.234;2023-02-14T03:17:28;99289.97;;;1.79;91.26
21980;BME280;11154;48.558;9.234;2023-02-14T03:19:41;99296.97;;;1.79;91.52
21980;BME280;11154;48.558;9.234;2023-02-14T03:22:08;99294.25;;;1.82;91.76
21980;BME280;11154;48.558;9.234;2023-02-14T03:24:19;99294.09;;;1.85;91.93
21980;BME280;11154;48.558;9.234;2023-02-14T03:26:28;99295.03;;;1.84;91.74
21980;BME280;11154;48.558;9.234;2023-02-14T03:28:37;99287.47;;;1.76;90.57
21980;BME280;11154;48.558;9.234;2023-02-14T03:30:47;99293.78;;;1.72;91.13
21980;BME280;11154;48.558;9.234;2023-02-14T03:32:58;99292.88;;;1.73;91.10
21980;BME280;11154;48.558;9.234;2023-02-14T03:35:07;99289.44;;;1.71;90.93
21980;BME280;11154;48.558;9.234;2023-02-14T03:37:13;99292.25;;;1.67;91.09
21980;BME280;11154;48.558;9.234;2023-02-14T03:39:20;99290.53;;;1.66;90.70
21980;BME280;11154;48.558;9.234;2023-02-14T03:41:26;99293.41;;;1.60;91.00
21980;BME280;11154;48.558;9.234;2023-02-14T03:43:32;99289.69;;;1.65;90.83
21980;BME280;11154;48.558;9.234;2023-02-14T03:45:38;99282.69;;;1.66;91.37
21980;BME280;11154;48.558;9.234;2023-02-14T03:47:42;99288.88;;;1.65;90.32
21980;BME280;11154;48.558;9.234;2023-02-14T03:49:47;99292.75;;;1.55;90.43
21980;BME280;11154;48.558;9.234;2023-02-14T03:51:53;99290.22;;;1.53;90.84
21980;BME280;11154;48.558;9.234;2023-02-14T03:53:57;99289.81;;;1.62;91.75
21980;BME280;11154;48.558;9.234;2023-02-14T03:56:02;99285.56;;;1.60;92.01
21980;BME280;11154;48.558;9.234;2023-02-14T03:58:09;99289.88;;;1.61;91.63
21980;BME280;11154;48.558;9.234;2023-02-14T04:00:14;99324.25;;;1.75;91.62
21980;BME280;11154;48.558;9.234;2023-02-14T04:02:22;99315.03;;;3.01;88.40
21980;BME280;11154;48.558;9.234;2023-02-14T04:04:27;99304.34;;;3.57;83.37
21980;BME280;11154;48.558;9.234;2023-02-14T04:06:31;99307.53;;;3.98;79.69
21980;BME280;11154;48.558;9.234;2023-02-14T04:08:33;99302.50;;;4.27;77.27
21980;BME280;11154;48.558;9.234;2023-02-14T04:10:36;99302.91;;;4.52;73.85
21980;BME280;11154;48.558;9.234;2023-02-14T04:12:39;99311.47;;;4.72;71.62
21980;BME280;11154;48.558;9.234;2023-02-14T04:14:40;99313.28;;;4.87;69.87
21980;BME280;11154;48.558;9.234;2023-02-14T04:16:42;99313.28;;;5.02;70.21
21980;BME280;11154;48.558;9.234;2023-02-14T04:19:01;99307.38;;;5.14;69.57
21980;BME280;11154;48.558;9.234;2023-02-14T04:21:25;99303.28;;;5.24;67.84
21980;BME280;11154;48.558;9.234;2023-02-14T04:23:27;99302.94;;;5.30;67.09
21980;BME280;11154;48.558;9.234;2023-02-14T04:25:29;99292.91;;;5.37;66.37
21980;BME280;11154;48.558;9.234;2023-02-14T04:27:32;99300.53;;;5.41;65.96
21980;BME280;11154;48.558;9.234;2023-02-14T04:29:34;99299.00;;;5.37;66.15
21980;BME280;11154;48.558;9.234;2023-02-14T04:31:35;99291.78;;;5.41;66.19
21980;BME280;11154;48.558;9.234;2023-02-14T04:33:37;99296.03;;;5.43;66.09
21980;BME280;11154;48.558;9.234;2023-02-14T04:35:39;99289.13;;;5.41;65.44
21980;BME280;11154;48.558;9.234;2023-02-14T04:37:41;99289.13;;;5.41;65.14
21980;BME280;11154;48.558;9.234;2023-02-14T04:39:42;99277.91;;;5.37;65.29
21980;BME280;11154;48.558;9.234;2023-02-14T04:41:44;99290.31;;;5.35;64.55
21980;BME280;11154;48.558;9.234;2023-02-14T04:43:47;99289.41;;;5.36;65.26
21980;BME280;11154;48.558;9.234;2023-02-14T04:45:48;99281.56;;;5.35;65.31
21980;BME280;11154;48.558;9.234;2023-02-14T04:47:50;99279.78;;;5.35;65.53
21980;BME280;11154;48.558;9.234;2023-02-14T04:49:52;99279.97;;;5.32;65.07
21980;BME280;11154;48.558;9.234;2023-02-14T04:51:53;99281.84;;;5.30;65.41
21980;BME280;11154;48.558;9.234;2023-02-14T04:53:55;99281.84;;;5.30;65.49
21980;BME280;11154;48.558;9.234;2023-02-14T04:55:56;99280.13;;;5.29;64.97
21980;BME280;11154;48.558;9.234;2023-02-14T04:57:58;99283.19;;;5.37;64.53
21980;BME280;11154;48.558;9.234;2023-02-14T05:00:01;99290.25;;;5.37;63.88
21980;BME280;11154;48.558;9.234;2023-02-14T05:02:03;99288.47;;;5.37;64.29
21980;BME280;11154;48.558;9.234;2023-02-14T05:04:04;99295.59;;;5.35;64.07
21980;BME280;11154;48.558;9.234;2023-02-14T05:06:06;99289.50;;;5.35;63.75
21980;BME280;11154;48.558;9.234;2023-02-14T05:08:07;99295.78;;;5.32;62.35
21980;BME280;11154;48.558;9.234;2023-02-14T05:10:10;99290.00;;;5.26;61.40
21980;BME280;11154;48.558;9.234;2023-02-14T05:12:11;99290.09;;;5.24;61.23
21980;BME280;11154;48.558;9.234;2023-02-14T05:14:13;99288.97;;;5.28;62.38
21980;BME280;11154;48.558;9.234;2023-02-14T05:16:16;99289.94;;;5.27;62.29
21980;BME280;11154;48.558;9.234;2023-02-14T05:18:17;99291.69;;;5.27;62.32
21980;BME280;11154;48.558;9.234;2023-02-14T05:20:19;99302.59;;;5.21;60.27
21980;BME280;11154;48.558;9.234;2023-02-14T05:22:21;99298.09;;;5.23;61.62
21980;BME280;11154;48.558;9.234;2023-02-14T05:24:22;99308.69;;;5.21;60.17
21980;BME280;11154;48.558;9.234;2023-02-14T05:26:24;99301.06;;;5.17;59.90
21980;BME280;11154;48.558;9.234;2023-02-14T05:28:26;99302.84;;;5.16;60.40
21980;BME280;11154;48.558;9.234;2023-02-14T05:30:27;99302.09;;;5.14;60.46
21980;BME280;11154;48.558;9.234;2023-02-14T05:32:30;99304.72;;;5.14;61.20
21980;BME280;11154;48.558;9.234;2023-02-14T05:34:32;99304.44;;;5.19;64.36
21980;BME280;11154;48.558;9.234;2023-02-14T05:36:33;99303.72;;;5.17;61.88
21980;BME280;11154;48.558;9.234;2023-02-14T05:38:35;99302.84;;;5.16;62.74
21980;BME280;11154;48.558;9.234;2023-02-14T05:40:37;99303.09;;;5.12;61.82
21980;BME280;11154;48.558;9.234;2023-02-14T05:42:38;99308.63;;;5.07;60.40
21980;BME280;11154;48.558;9.234;2023-02-14T05:44:40;99308.09;;;5.01;59.41
21980;BME280;11154;48.558;9.234;2023-02-14T05:46:41;99309.72;;;5.03;59.71
21980;BME280;11154;48.558;9.234;2023-02-14T05:48:44;99301.13;;;5.00;58.54
21980;BME280;11154;48.558;9.234;2023-02-14T05:50:46;99307.41;;;4.97;58.69
21980;BME280;11154;48.558;9.234;2023-02-14T05:52:48;99306.50;;;4.98;59.59
21980;BME280;11154;48.558;9.234;2023-02-14T05:54:49;99310.06;;;4.97;58.80
21980;BME280;11154;48.558;9.234;2023-02-14T05:56:51;99304.09;;;4.94;59.26
21980;BME280;11154;48.558;9.234;2023-02-14T05:58:52;99313.97;;;4.91;59.51
21980;BME280;11154;48.558;9.234;2023-02-14T06:00:55;99313.97;;;4.91;59.71
21980;BME280;11154;48.558;9.234;2023-02-14T06:02:56;99310.56;;;4.89;59.12
21980;BME280;11154;48.558;9.234;2023-02-14T06:05:00;99312.44;;;4.87;60.00
21980;BME280;11154;48.558;9.234;2023-02-14T06:07:01;99320.44;;;4.85;59.87
21980;BME280;11154;48.558;9.234;2023-02-14T06:09:03;99313.38;;;4.86;60.57
21980;BME280;11154;48.558;9.234;2023-02-14T06:11:05;99318.53;;;4.87;60.61
21980;BME280;11154;48.558;9.234;2023-02-14T06:13:06;99322.97;;;4.87;59.86
21980;BME280;11154;48.558;9.234;2023-02-14T06:15:08;99321.13;;;4.89;60.39
21980;BME280;11154;48.558;9.234;2023-02-14T06:17:10;99323.75;;;4.89;60.09
21980;BME280;11154;48.558;9.234;2023-02-14T06:19:12;99318.22;;;4.93;59.69
21980;BME280;11154;48.558;9.234;2023-02-14T06:21:15;99318.91;;;4.97;59.24
21980;BME280;11154;48.558;9.234;2023-02-14T06:23:16;99320.50;;;4.99;60.03
21980;BME280;11154;48.558;9.234;2023-02-14T06:25:18;99329.09;;;5.02;62.52
21980;BME280;11154;48.558;9.234;2023-02-14T06:27:20;99326.56;;;5.01;61.17
21980;BME280;11154;48.558;9.234;2023-02-14T06:29:21;99326.97;;;4.94;61.92
21980;BME280;11154;48.558;9.234;2023-02-14T06:31:23;99318.28;;;4.92;61.51
21980;BME280;11154;48.558;9.234;2023-02-14T06:33:25;99327.47;;;4.85;59.99
21980;BME280;11154;48.558;9.234;2023-02-14T06:35:27;99327.47;;;4.85;59.08
21980;BME280;11154;48.558;9.234;2023-02-14T06:37:30;99333.66;;;4.84;59.12
21980;BME280;11154;48.558;9.234;2023-02-14T06:39:32;99333.84;;;4.81;59.03
21980;BME280;11154;48.558;9.234;2023-02-14T06:41:33;99327.66;;;4.82;60.07
21980;BME280;11154;48.558;9.234;2023-02-14T06:43:35;99323.22;;;4.82;59.93
21980;BME280;11154;48.558;9.234;2023-02-14T06:45:37;99325.06;;;4.80;59.71
21980;BME280;11154;48.558;9.234;2023-02-14T06:47:39;99324.16;;;4.81;59.51
21980;BME280;11154;48.558;9.234;2023-02-14T06:49:40;99326.72;;;4.83;60.33
21980;BME280;11154;48.558;9.234;2023-02-14T06:51:42;99330.28;;;4.82;59.91
21980;BME280;11154;48.558;9.234;2023-02-14T06:53:45;99326.88;;;4.80;59.85
21980;BME280;11154;48.558;9.234;2023-02-14T06:55:47;99326.28;;;4.75;59.76
21980;BME280;11154;48.558;9.234;2023-02-14T06:57:48;99326.41;;;4.72;59.88
21980;BME280;11154;48.558;9.234;2023-02-14T06:59:50;99324.28;;;4.63;58.99
21980;BME280;11154;48.558;9.234;2023-02-14T07:01:51;99322.41;;;4.65;60.59
21980;BME280;11154;48.558;9.234;2023-02-14T07:03:53;99324.28;;;4.63;60.62
21980;BME280;11154;48.558;9.234;2023-02-14T07:05:56;99323.38;;;4.64;61.40
21980;BME280;11154;48.558;9.234;2023-02-14T07:07:57;99328.63;;;4.64;60.14
21980;BME280;11154;48.558;9.234;2023-02-14T07:10:00;99330.31;;;4.65;60.89
21980;BME280;11154;48.558;9.234;2023-02-14T07:12:02;99329.38;;;4.66;60.62
21980;BME280;11154;48.558;9.234;2023-02-14T07:14:04;99329.38;;;4.66;60.32
21980;BME280;11154;48.558;9.234;2023-02-14T07:16:05;99333.63;;;4.68;61.75
21980;BME280;11154;48.558;9.234;2023-02-14T07:18:07;99328.91;;;4.75;62.62
21980;BME280;11154;48.558;9.234;2023-02-14T07:20:12;99331.44;;;4.76;61.69
21980;BME280;11154;48.558;9.234;2023-02-14T07:22:13;99318.69;;;4.69;62.32
21980;BME280;11154;48.558;9.234;2023-02-14T07:24:15;99328.38;;;4.68;61.55
21980;BME280;11154;48.558;9.234;2023-02-14T07:26:18;99325.59;;;4.71;60.88
21980;BME280;11154;48.558;9.234;2023-02-14T07:28:20;99320.13;;;4.74;61.98
21980;BME280;11154;48.558;9.234;2023-02-14T07:30:21;99325.16;;;4.79;62.43
21980;BME280;11154;48.558;9.234;2023-02-14T07:32:23;99320.47;;;4.84;63.03
21980;BME280;11154;48.558;9.234;2023-02-14T07:34:25;99322.19;;;4.85;62.23
21980;BME280;11154;48.558;9.234;2023-02-14T07:36:27;99328.94;;;4.90;62.06
21980;BME280;11154;48.558;9.234;2023-02-14T07:38:29;99330.53;;;4.93;61.75
21980;BME280;11154;48.558;9.234;2023-02-14T07:40:30;99336.41;;;4.97;62.04
21980;BME280;11154;48.558;9.234;2023-02-14T07:42:33;99333.53;;;5.02;61.59
21980;BME280;11154;48.558;9.234;2023-02-14T07:44:35;99324.69;;;5.03;62.23
21980;BME280;11154;48.558;9.234;2023-02-14T07:46:38;99326.22;;;5.07;63.34
21980;BME280;11154;48.558;9.234;2023-02-14T07:48:39;99318.25;;;5.08;62.69
21980;BME280;11154;48.558;9.234;2023-02-14T07:50:41;99318.06;;;5.11;63.26
21980;BME280;11154;48.558;9.234;2023-02-14T07:52:42;99323.34;;;5.11;63.05
21980;BME280;11154;48.558;9.234;2023-02-14T07:54:44;99318.91;;;5.12;63.58
21980;BME280;11154;48.558;9.234;2023-02-14T07:56:46;99315.53;;;5.10;63.68
21980;BME280;11154;48.558;9.234;2023-02-14T07:58:48;99312.63;;;5.14;64.10
21980;BME280;11154;48.558;9.234;2023-02-14T08:00:50;99316.22;;;5.13;63.31
21980;BME280;11154;48.558;9.234;2023-02-14T08:02:52;99313.56;;;5.13;63.96
21980;BME280;11154;48.558;9.234;2023-02-14T08:04:55;99322.22;;;5.15;64.63
21980;BME280;11154;48.558;9.234;2023-02-14T08:06:57;99317.72;;;5.17;64.66
21980;BME280;11154;48.558;9.234;2023-02-14T08:08:58;99322.66;;;5.23;65.22
21980;BME280;11154;48.558;9.234;2023-02-14T08:11:00;99317.03;;;5.29;65.07
21980;BME280;11154;48.558;9.234;2023-02-14T08:13:02;99320.47;;;5.31;64.65
21980;BME280;11154;48.558;9.234;2023-02-14T08:15:04;99304.13;;;5.40;64.54
21980;BME280;11154;48.558;9.234;2023-02-14T08:17:24;99312.44;;;5.48;65.23
21980;BME280;11154;48.558;9.234;2023-02-14T08:19:25;99315.66;;;5.53;64.35
21980;BME280;11154;48.558;9.234;2023-02-14T08:21:27;99310.91;;;5.60;65.39
21980;BME280;11154;48.558;9.234;2023-02-14T08:23:29;99314.03;;;5.66;64.80
21980;BME280;11154;48.558;9.234;2023-02-14T08:25:31;99315.38;;;5.73;64.98
21980;BME280;11154;48.558;9.234;2023-02-14T08:27:33;99314.22;;;5.78;64.98
21980;BME280;11154;48.558;9.234;2023-02-14T08:29:34;99311.22;;;5.84;64.87
21980;BME280;11154;48.558;9.234;2023-02-14T08:31:38;99300.97;;;5.94;65.74
21980;BME280;11154;48.558;9.234;2023-02-14T08:33:40;99301.50;;;6.00;65.86
21980;BME280;11154;48.558;9.234;2023-02-14T08:35:43;99289.91;;;6.03;66.32
21980;BME280;11154;48.558;9.234;2023-02-14T08:37:45;99293.94;;;6.08;67.13
21980;BME280;11154;48.558;9.234;2023-02-14T08:39:46;99294.63;;;6.12;67.17
21980;BME280;11154;48.558;9.234;2023-02-14T08:41:48;99303.31;;;6.14;67.85
21980;BME280;11154;48.558;9.234;2023-02-14T08:43:50;99297.56;;;6.21;68.82
21980;BME280;11154;48.558;9.234;2023-02-14T08:45:51;99299.09;;;6.25;67.89
21980;BME280;11154;48.558;9.234;2023-02-14T08:47:59;99294.09;;;6.35;68.08
21980;BME280;11154;48.558;9.234;2023-02-14T08:50:01;99292.81;;;6.42;68.31
21980;BME280;11154;48.558;9.234;2023-02-14T08:52:02;99293.94;;;6.51;68.86
21980;BME280;11154;48.558;9.234;2023-02-14T08:54:04;99302.91;;;6.63;68.69
21980;BME280;11154;48.558;9.234;2023-02-14T08:56:07;99292.78;;;6.69;68.65
21980;BME280;11154;48.558;9.234;2023-02-14T08:58:09;99311.59;;;6.79;68.23
21980;BME280;11154;48.558;9.234;2023-02-14T09:00:12;99301.50;;;6.85;68.38
21980;BME280;11154;48.558;9.234;2023-02-14T09:02:14;99294.78;;;6.94;68.43
21980;BME280;11154;48.558;9.234;2023-02-14T09:04:17;99295.44;;;6.97;68.64
21980;BME280;11154;48.558;9.234;2023-02-14T09:06:19;99292.50;;;7.02;68.84
21980;BME280;11154;48.558;9.234;2023-02-14T09:08:21;99291.34;;;7.06;68.45
21980;BME280;11154;48.558;9.234;2023-02-14T09:10:23;99292.97;;;7.08;68.50
21980;BME280;11154;48.558;9.234;2023-02-14T09:12:25;99290.88;;;7.13;68.85
21980;BME280;11154;48.558;9.234;2023-02-14T09:14:27;99293.69;;;7.24;68.59
21980;BME280;11154;48.558;9.234;2023-02-14T09:16:28;99291.38;;;7.32;68.50
21980;BME280;11154;48.558;9.234;2023-02-14T09:18:30;99282.03;;;7.40;68.59
21980;BME280;11154;48.558;9.234;2023-02-14T09:20:33;99284.19;;;7.48;68.57
21980;BME280;11154;48.558;9.234;2023-02-14T09:22:35;99283.78;;;7.54;68.43
21980;BME280;11154;48.558;9.234;2023-02-14T09:24:37;99278.28;;;7.57;67.58
21980;BME280;11154;48.558;9.234;2023-02-14T09:26:40;99275.03;;;7.66;67.31
21980;BME280;11154;48.558;9.234;2023-02-14T09:28:42;99273.88;;;7.70;67.48
21980;BME280;11154;48.558;9.234;2023-02-14T09:30:44;99271.69;;;7.76;67.19
21980;BME280;11154;48.558;9.234;2023-02-14T09:32:46;99270.31;;;7.83;67.77
21980;BME280;11154;48.558;9.234;2023-02-14T09:34:47;99260.38;;;7.87;68.33
21980;BME280;11154;48.558;9.234;2023-02-14T09:37:09;99263.56;;;7.91;67.57
21980;BME280;11154;48.558;9.234;2023-02-14T09:39:11;99260.72;;;7.94;68.07
21980;BME280;11154;48.558;9.234;2023-02-14T09:41:42;99255.31;;;7.96;67.74
21980;BME280;11154;48.558;9.234;2023-02-14T09:43:50;99255.97;;;7.99;68.18
21980;BME280;11154;48.558;9.234;2023-02-14T09:45:58;99254.16;;;8.00;68.07
21980;BME280;11154;48.558;9.234;2023-02-14T09:48:05;99258.91;;;8.07;67.98
21980;BME280;11154;48.558;9.234;2023-02-14T09:50:16;99258.25;;;8.30;67.45
21980;BME280;11154;48.558;9.234;2023-02-14T09:52:21;99252.94;;;8.30;65.03
21980;BME280;11154;48.558;9.234;2023-02-14T09:54:27;99250.91;;;8.21;65.85
21980;BME280;11154;48.558;9.234;2023-02-14T09:56:43;99251.97;;;8.19;65.16
21980;BME280;11154;48.558;9.234;2023-02-14T09:58:53;99254.75;;;8.17;64.56
21980;BME280;11154;48.558;9.234;2023-02-14T10:01:01;99254.13;;;8.26;64.17
21980;BME280;11154;48.558;9.234;2023-02-14T10:03:20;99247.34;;;8.35;63.81
21980;BME280;11154;48.558;9.234;2023-02-14T10:05:26;99248.28;;;8.46;63.39
21980;BME280;11154;48.558;9.234;2023-02-14T10:07:39;99243.28;;;8.54;63.46
21980;BME280;11154;48.558;9.234;2023-02-14T10:09:52;99245.41;;;8.61;63.61
21980;BME280;11154;48.558;9.234;2023-02-14T10:11:58;99244.13;;;8.67;63.55
21980;BME280;11154;48.558;9.234;2023-02-14T10:14:04;99248.81;;;8.76;63.74
21980;BME280;11154;48.558;9.234;2023-02-14T10:16:15;99240.94;;;8.87;63.99
21980;BME280;11154;48.558;9.234;2023-02-14T10:18:20;99239.03;;;8.76;62.14
21980;BME280;11154;48.558;9.234;2023-02-14T10:20:27;99233.56;;;8.42;63.52
21980;BME280;11154;48.558;9.234;2023-02-14T10:22:38;99240.53;;;8.56;64.54
21980;BME280;11154;48.558;9.234;2023-02-14T10:24:44;99241.69;;;8.76;63.81
21980;BME280;11154;48.558;9.234;2023-02-14T10:26:49;99227.47;;;8.90;64.24
21980;BME280;11154;48.558;9.234;2023-02-14T10:28:54;99236.56;;;8.98;64.44
21980;BME280;11154;48.558;9.234;2023-02-14T10:31:04;99223.38;;;9.09;68.12
21980;BME280;11154;48.558;9.234;2023-02-14T10:33:14;99223.88;;;9.14;66.53
21980;BME280;11154;48.558;9.234;2023-02-14T10:35:24;99218.44;;;9.16;64.07
21980;BME280;11154;48.558;9.234;2023-02-14T10:37:43;99224.06;;;9.24;62.64
21980;BME280;11154;48.558;9.234;2023-02-14T10:39:58;99216.88;;;9.36;62.66
21980;BME280;11154;48.558;9.234;2023-02-14T10:42:07;99211.16;;;9.07;63.10
21980;BME280;11154;48.558;9.234;2023-02-14T10:44:29;99216.56;;;8.69;65.53
21980;BME280;11154;48.558;9.234;2023-02-14T10:46:44;99213.94;;;8.45;66.61
21980;BME280;11154;48.558;9.234;2023-02-14T10:48:53;99204.03;;;8.59;67.88
21980;BME280;11154;48.558;9.234;2023-02-14T10:51:03;99203.50;;;9.15;65.78
21980;BME280;11154;48.558;9.234;2023-02-14T10:53:15;99203.47;;;9.61;64.10
21980;BME280;11154;48.558;9.234;2023-02-14T10:55:25;99190.13;;;9.97;63.08
21980;BME280;11154;48.558;9.234;2023-02-14T10:57:31;99191.88;;;10.20;62.14
21980;BME280;11154;48.558;9.234;2023-02-14T10:59:49;99197.94;;;10.44;61.11
21980;BME280;11154;48.558;9.234;2023-02-14T11:01:55;99176.19;;;10.61;60.84
21980;BME280;11154;48.558;9.234;2023-02-14T11:04:01;99180.28;;;10.76;60.12
21980;BME280;11154;48.558;9.234;2023-02-14T11:06:07;99178.69;;;10.84;59.57
21980;BME280;11154;48.558;9.234;2023-02-14T11:08:21;99173.75;;;10.90;59.68
21980;BME280;11154;48.558;9.234;2023-02-14T11:10:26;99171.41;;;10.97;59.28
21980;BME280;11154;48.558;9.234;2023-02-14T11:12:31;99173.97;;;10.98;58.87